createdAt,value
2022-07-25T00:00:13.969Z,38.43
2022-07-25T00:05:16.694Z,38.44
2022-07-25T00:10:20.809Z,38.59
2022-07-25T00:15:23.693Z,38.57
2022-07-25T00:20:26.644Z,38.59
2022-07-25T00:25:30.707Z,38.71
2022-07-25T00:30:33.443Z,38.80
2022-07-25T00:35:36.176Z,38.79
2022-07-25T00:40:40.244Z,38.97
2022-07-25T00:45:42.988Z,39.13
2022-07-25T00:50:45.911Z,39.01
2022-07-25T00:55:50.006Z,39.20
2022-07-25T01:00:52.780Z,39.28
2022-07-25T01:05:55.482Z,39.10
2022-07-25T01:10:59.780Z,39.19
2022-07-25T01:16:02.641Z,39.20
2022-07-25T01:21:07.177Z,39.35
2022-07-25T01:26:10.135Z,39.49
2022-07-25T01:31:12.957Z,39.63
2022-07-25T01:36:17.130Z,39.42
2022-07-25T01:41:22.739Z,39.26
2022-07-25T01:46:25.731Z,39.43
2022-07-25T01:51:29.865Z,39.82
2022-07-25T01:56:32.701Z,39.88
2022-07-25T02:01:36.255Z,39.73
2022-07-25T02:06:41.602Z,39.92
2022-07-25T02:11:44.370Z,39.85
2022-07-25T02:16:47.213Z,40.08
2022-07-25T02:21:51.349Z,39.83
2022-07-25T02:26:54.133Z,40.14
2022-07-25T02:31:56.937Z,39.96
2022-07-25T02:37:01.141Z,40.03
2022-07-25T02:42:04.005Z,40.00
2022-07-25T02:47:06.996Z,40.22
2022-07-25T02:52:11.084Z,40.10
2022-07-25T02:57:14.052Z,40.42
2022-07-25T03:02:16.739Z,40.34
2022-07-25T03:07:20.880Z,40.12
2022-07-25T03:12:23.617Z,39.54
2022-07-25T03:17:26.551Z,39.84
2022-07-25T03:22:30.649Z,39.90
2022-07-25T03:27:33.377Z,40.06
2022-07-25T03:32:36.375Z,40.15
2022-07-25T03:37:40.502Z,40.27
2022-07-25T03:42:43.253Z,40.30
2022-07-25T03:47:46.073Z,40.12
2022-07-25T03:52:50.230Z,40.27
2022-07-25T03:57:53.040Z,40.06
2022-07-25T04:02:55.779Z,40.14
2022-07-25T04:08:00.389Z,40.46
2022-07-25T04:13:03.751Z,40.26
2022-07-25T04:18:06.776Z,40.79
2022-07-25T04:23:13.457Z,40.68
2022-07-25T04:28:16.189Z,40.86
2022-07-25T04:33:19.391Z,40.80
2022-07-25T04:38:23.551Z,40.93
2022-07-25T04:43:26.519Z,40.80
2022-07-25T04:48:29.502Z,41.04
2022-07-25T04:53:33.687Z,41.12
2022-07-25T04:58:36.440Z,41.14
2022-07-25T05:03:39.174Z,41.26
2022-07-25T05:08:43.374Z,41.35
2022-07-25T05:13:46.159Z,41.36
2022-07-25T05:18:48.963Z,41.54
2022-07-25T05:23:53.248Z,41.67
2022-07-25T05:28:55.988Z,41.90
2022-07-25T05:33:58.747Z,41.74
2022-07-25T05:39:03.189Z,41.99
2022-07-25T05:44:06.348Z,41.97
2022-07-25T05:49:09.418Z,42.47
2022-07-25T05:54:13.584Z,42.40
2022-07-25T05:59:16.273Z,42.21
2022-07-25T06:04:19.854Z,42.57
2022-07-25T06:09:26.124Z,42.40
2022-07-25T06:14:28.990Z,42.69
2022-07-25T06:19:32.234Z,42.66
2022-07-25T06:24:36.351Z,42.96
2022-07-25T06:29:39.647Z,42.99
2022-07-25T06:34:42.448Z,43.11
2022-07-25T06:39:46.604Z,43.02
2022-07-25T06:44:49.646Z,43.55
2022-07-25T06:49:52.732Z,43.24
2022-07-25T06:54:56.866Z,43.28
2022-07-25T06:59:59.645Z,43.11
2022-07-25T07:05:02.553Z,43.41
2022-07-25T07:10:07.670Z,43.19
2022-07-25T07:15:11.253Z,42.86
2022-07-25T07:20:14.135Z,42.85
2022-07-25T07:25:20.840Z,42.91
2022-07-25T07:30:26.024Z,42.82
2022-07-25T07:35:36.851Z,43.08
2022-07-25T07:40:41.174Z,42.86
2022-07-25T07:45:43.939Z,43.05
2022-07-25T07:50:46.752Z,42.95
2022-07-25T07:55:55.304Z,43.18
2022-07-25T08:00:58.205Z,43.09
2022-07-25T08:06:01.051Z,43.01
2022-07-25T08:11:05.420Z,43.47
2022-07-25T08:16:08.667Z,43.27
2022-07-25T08:21:11.854Z,43.25
2022-07-25T08:26:15.922Z,43.56
2022-07-25T08:31:18.861Z,43.36
2022-07-25T08:36:21.672Z,44.14
2022-07-25T08:41:25.788Z,43.64
2022-07-25T08:46:30.227Z,43.60
2022-07-25T08:51:33.644Z,43.74
2022-07-25T08:56:37.776Z,43.72
2022-07-25T09:01:41.143Z,43.80
2022-07-25T09:06:50.512Z,44.01
2022-07-25T09:11:54.739Z,43.93
2022-07-25T09:16:57.773Z,44.15
2022-07-25T09:22:02.596Z,44.08
2022-07-25T09:27:12.514Z,44.00
2022-07-25T09:32:16.966Z,44.06
2022-07-25T09:37:20.826Z,43.84
2022-07-25T09:42:25.856Z,44.07
2022-07-25T09:47:28.755Z,44.00
2022-07-25T09:52:31.622Z,43.88
2022-07-25T09:57:35.729Z,44.11
2022-07-25T10:02:44.720Z,43.56
2022-07-25T10:07:48.456Z,44.09
2022-07-25T10:13:09.854Z,44.02
2022-07-25T10:18:13.452Z,44.04
2022-07-25T10:23:24.109Z,44.03
2022-07-25T10:28:37.111Z,44.00
2022-07-25T10:33:42.257Z,43.93
2022-07-25T10:38:45.392Z,44.31
2022-07-25T10:43:51.473Z,44.41
2022-07-25T10:49:01.692Z,44.56
2022-07-25T10:54:13.912Z,45.02
2022-07-25T10:59:26.811Z,45.02
2022-07-25T11:04:29.563Z,45.08
2022-07-25T11:09:34.008Z,44.95
2022-07-25T11:14:40.899Z,44.67
2022-07-25T11:19:43.806Z,44.82
2022-07-25T11:24:47.221Z,44.83
2022-07-25T11:29:51.340Z,44.66
2022-07-25T11:34:54.550Z,44.61
2022-07-25T11:39:57.465Z,44.28
2022-07-25T11:45:01.673Z,44.28
2022-07-25T11:50:05.803Z,44.18
2022-07-25T11:55:09.871Z,43.96
2022-07-25T12:00:17.577Z,44.17
2022-07-25T12:05:21.561Z,43.97
2022-07-25T12:10:25.296Z,44.18
2022-07-25T12:15:30.407Z,43.99
2022-07-25T12:20:34.197Z,44.09
2022-07-25T12:25:38.174Z,44.10
2022-07-25T12:30:43.012Z,44.26
2022-07-25T12:35:45.960Z,44.41
2022-07-25T12:40:49.805Z,44.18
2022-07-25T12:45:53.966Z,44.22
2022-07-25T12:50:56.911Z,44.02
2022-07-25T12:55:59.652Z,43.93
2022-07-25T13:01:03.878Z,43.86
2022-07-25T13:06:07.016Z,43.85
2022-07-25T13:11:09.797Z,43.99
2022-07-25T13:16:14.475Z,44.13
2022-07-25T13:21:17.746Z,44.09
2022-07-25T13:26:20.605Z,44.14
2022-07-25T13:31:24.833Z,44.12
2022-07-25T13:36:27.664Z,44.03
2022-07-25T13:41:30.423Z,44.09
2022-07-25T13:46:35.118Z,44.04
2022-07-25T13:51:37.966Z,44.27
2022-07-25T13:56:41.579Z,44.34
2022-07-25T14:01:47.473Z,44.26
2022-07-25T14:06:52.304Z,44.46
2022-07-25T14:11:55.174Z,44.55
2022-07-25T14:16:59.521Z,44.50
2022-07-25T14:22:02.750Z,44.44
2022-07-25T14:27:05.534Z,44.74
2022-07-25T14:32:09.770Z,44.58
2022-07-25T14:37:12.598Z,44.46
2022-07-25T14:42:15.563Z,44.40
2022-07-25T14:47:19.834Z,44.44
2022-07-25T14:52:24.725Z,44.39
2022-07-25T14:57:27.719Z,44.58
2022-07-25T15:02:32.244Z,44.74
2022-07-25T15:07:35.123Z,44.72
2022-07-25T15:12:37.868Z,44.57
2022-07-25T15:17:42.337Z,44.78
2022-07-25T15:22:45.290Z,44.86
2022-07-25T15:27:48.090Z,44.76
2022-07-25T15:32:52.395Z,44.60
2022-07-25T15:37:55.308Z,44.85
2022-07-25T15:42:58.445Z,44.63
2022-07-25T15:48:03.668Z,44.79
2022-07-25T15:53:06.619Z,44.35
2022-07-25T15:58:09.621Z,44.09
2022-07-25T16:03:14.634Z,44.30
2022-07-25T16:08:17.859Z,44.71
2022-07-25T16:13:20.628Z,44.66
2022-07-25T16:18:26.873Z,44.71
2022-07-25T16:23:36.188Z,44.52
2022-07-25T16:28:41.270Z,44.91
2022-07-25T16:33:46.143Z,44.88
2022-07-25T16:38:49.264Z,44.84
2022-07-25T16:43:52.188Z,44.97
2022-07-25T16:48:56.895Z,44.79
2022-07-25T16:54:00.065Z,44.87
2022-07-25T16:59:03.012Z,44.63
2022-07-25T17:04:08.057Z,44.73
2022-07-25T17:09:11.118Z,44.70
2022-07-25T17:14:14.295Z,44.75
2022-07-25T17:19:18.742Z,44.71
2022-07-25T17:24:21.673Z,44.78
2022-07-25T17:29:24.575Z,44.84
2022-07-25T17:34:28.869Z,44.54
2022-07-25T17:39:31.641Z,44.77
2022-07-25T17:44:34.554Z,44.80
2022-07-25T17:49:38.670Z,44.51
2022-07-25T17:54:42.315Z,44.82
2022-07-25T17:59:45.189Z,54.91
2022-07-25T18:04:49.453Z,46.91
2022-07-25T18:09:52.877Z,52.86
2022-07-25T18:14:55.847Z,48.63
2022-07-25T18:20:00.022Z,51.83
2022-07-25T18:25:02.805Z,52.67
2022-07-25T18:30:07.911Z,53.33
2022-07-25T18:35:12.296Z,54.38
2022-07-25T18:40:20.467Z,55.02
2022-07-25T18:45:24.072Z,55.55
2022-07-25T18:50:28.728Z,55.38
2022-07-25T18:55:31.495Z,53.93
2022-07-25T19:00:34.543Z,55.00
2022-07-25T19:05:38.988Z,52.79
2022-07-25T19:10:42.176Z,53.79
2022-07-25T19:15:45.009Z,55.78
2022-07-25T19:20:49.195Z,56.32
2022-07-25T19:25:52.376Z,54.18
2022-07-25T19:30:55.158Z,55.27
2022-07-25T19:35:59.372Z,55.23
2022-07-25T19:41:02.275Z,54.02
2022-07-25T19:46:05.057Z,54.54
2022-07-25T19:51:09.292Z,54.61
2022-07-25T19:56:12.057Z,54.80
2022-07-25T20:01:14.845Z,52.02
2022-07-25T20:06:20.574Z,53.81
2022-07-25T20:11:23.408Z,53.75
2022-07-25T20:16:26.276Z,53.79
2022-07-25T20:21:30.445Z,54.13
2022-07-25T20:26:33.216Z,54.00
2022-07-25T20:31:36.886Z,53.75
2022-07-25T20:36:41.151Z,54.22
2022-07-25T20:41:44.637Z,55.04
2022-07-25T20:46:47.561Z,54.79
2022-07-25T20:51:54.622Z,54.69
2022-07-25T20:56:57.718Z,55.10
2022-07-25T21:02:00.855Z,54.59
2022-07-25T21:07:05.333Z,54.96
2022-07-25T21:12:10.477Z,54.92
2022-07-25T21:17:13.211Z,55.31
2022-07-25T21:22:17.641Z,55.06
2022-07-25T21:27:20.595Z,54.32
2022-07-25T21:32:23.609Z,54.01
2022-07-25T21:37:27.957Z,53.64
2022-07-25T21:42:30.775Z,53.34
2022-07-25T21:47:33.984Z,53.06
2022-07-25T21:52:38.166Z,52.93
2022-07-25T21:57:40.873Z,52.04
2022-07-25T22:02:43.830Z,52.59
2022-07-25T22:07:48.083Z,52.16
2022-07-25T22:12:51.079Z,51.93
2022-07-25T22:17:53.935Z,51.45
2022-07-25T22:22:58.165Z,51.26
2022-07-25T22:28:01.008Z,50.94
2022-07-25T22:33:03.781Z,51.25
2022-07-25T22:38:09.211Z,50.81
2022-07-25T22:43:12.055Z,51.09
2022-07-25T22:48:14.907Z,50.97
2022-07-25T22:53:18.993Z,50.71
2022-07-25T22:58:21.783Z,51.04
2022-07-25T23:03:24.566Z,50.94
2022-07-25T23:08:34.882Z,50.60
2022-07-25T23:13:37.894Z,50.97
2022-07-25T23:18:40.652Z,50.97
2022-07-25T23:23:44.973Z,51.10
2022-07-25T23:28:47.814Z,50.92
2022-07-25T23:33:50.679Z,51.51
2022-07-25T23:38:54.809Z,51.63
2022-07-25T23:43:59.467Z,51.79
2022-07-25T23:49:02.798Z,51.94
2022-07-25T23:54:07.081Z,52.26
2022-07-25T23:59:10.373Z,52.71
